createdAt,value
2019-02-27T00:04:02.425Z,7.67
2019-02-27T00:07:14.103Z,7.00
2019-02-27T00:09:48.551Z,7.67
2019-02-27T00:12:40.555Z,7.00
2019-02-27T00:15:37.757Z,9.40
2019-02-27T00:18:30.997Z,9.00
2019-02-27T00:24:12.155Z,7.00
2019-02-27T00:26:44.690Z,6.60
2019-02-27T00:29:16.646Z,7.00
2019-02-27T00:32:07.808Z,9.00
2019-02-27T00:34:58.357Z,9.50
2019-02-27T00:37:51.962Z,9.00
2019-02-27T00:40:24.887Z,9.00
2019-02-27T00:43:38.462Z,10.20
2019-02-27T00:46:13.380Z,7.00
2019-02-27T00:49:03.682Z,9.00
2019-02-27T00:51:50.482Z,9.00
2019-02-27T00:58:06.115Z,8.20
2019-02-27T01:00:45.260Z,9.60
2019-02-27T01:03:17.508Z,7.80
2019-02-27T01:05:52.097Z,9.00
2019-02-27T01:08:39.242Z,10.33
2019-02-27T01:11:02.610Z,7.40
2019-02-27T01:16:56.649Z,10.33
2019-02-27T01:19:29.495Z,11.00
2019-02-27T01:22:02.132Z,10.50
2019-02-27T01:24:53.103Z,12.00
2019-02-27T01:27:25.364Z,11.00
2019-02-27T01:29:57.744Z,9.00
2019-02-27T01:32:48.360Z,10.33
2019-02-27T01:35:21.951Z,13.00
2019-02-27T01:37:52.985Z,11.00
2019-02-27T01:40:43.654Z,8.33
2019-02-27T01:43:15.993Z,11.00
2019-02-27T01:45:46.798Z,12.33
2019-02-27T01:48:42.733Z,9.00
2019-02-27T01:51:16.156Z,10.00
2019-02-27T01:54:23.821Z,9.50
2019-02-27T01:57:05.489Z,10.50
2019-02-27T01:59:56.123Z,11.67
2019-02-27T02:02:29.219Z,9.67
2019-02-27T02:04:59.233Z,11.00
2019-02-27T02:07:49.907Z,11.00
2019-02-27T02:10:22.064Z,9.00
2019-02-27T02:13:17.033Z,11.00
2019-02-27T02:16:27.001Z,8.33
2019-02-27T02:19:37.226Z,9.00
2019-02-27T02:22:46.972Z,11.00
2019-02-27T02:25:45.454Z,11.00
2019-02-27T02:28:55.641Z,13.33
2019-02-27T02:32:05.506Z,13.00
2019-02-27T02:35:15.785Z,9.33
2019-02-27T02:38:26.169Z,14.33
2019-02-27T02:41:21.028Z,11.00
2019-02-27T02:44:32.772Z,13.00
2019-02-27T02:47:34.059Z,13.67
2019-02-27T02:50:33.941Z,11.33
2019-02-27T02:53:42.845Z,14.33
2019-02-27T02:56:52.146Z,14.00
2019-02-27T03:00:02.338Z,8.00
2019-02-27T03:03:17.910Z,16.00
2019-02-27T03:06:34.565Z,13.00
2019-02-27T03:09:55.278Z,10.00
2019-02-27T03:13:05.991Z,10.00
2019-02-27T03:19:33.212Z,14.00
2019-02-27T03:22:42.598Z,14.00
2019-02-27T03:25:53.087Z,17.00
2019-02-27T03:29:02.387Z,14.67
2019-02-27T03:32:12.662Z,10.00
2019-02-27T03:35:27.546Z,16.33
2019-02-27T03:38:34.493Z,17.25
2019-02-27T03:41:28.930Z,12.00
2019-02-27T03:44:27.844Z,16.67
2019-02-27T03:47:22.802Z,14.50
2019-02-27T03:50:31.186Z,16.00
2019-02-27T03:53:43.352Z,14.67
2019-02-27T03:56:54.977Z,16.67
2019-02-27T04:00:04.293Z,12.00
2019-02-27T04:03:17.099Z,16.67
2019-02-27T04:06:24.479Z,15.67
2019-02-27T04:09:33.867Z,17.33
2019-02-27T04:12:23.572Z,15.33
2019-02-27T04:15:17.664Z,15.00
2019-02-27T04:18:03.584Z,16.67
2019-02-27T04:20:37.222Z,16.00
2019-02-27T04:26:15.106Z,14.00
2019-02-27T04:29:08.331Z,15.33
2019-02-27T04:31:40.285Z,14.67
2019-02-27T04:34:11.096Z,14.00
2019-02-27T04:37:02.325Z,16.00
2019-02-27T04:39:54.365Z,12.50
2019-02-27T04:42:26.522Z,14.00
2019-02-27T04:44:58.441Z,12.67
2019-02-27T04:47:31.569Z,14.00
2019-02-27T04:50:23.129Z,12.00
2019-02-27T04:52:57.738Z,15.33
2019-02-27T04:55:48.014Z,14.00
2019-02-27T04:58:42.823Z,14.00
2019-02-27T05:01:30.731Z,15.33
2019-02-27T05:04:04.570Z,13.33
2019-02-27T05:06:55.258Z,13.33
2019-02-27T05:09:45.596Z,13.33
2019-02-27T05:15:45.456Z,14.00
2019-02-27T05:18:36.141Z,13.33
2019-02-27T05:24:32.772Z,16.00
2019-02-27T05:27:03.591Z,15.33
2019-02-27T05:30:04.067Z,17.33
2019-02-27T05:33:01.816Z,18.67
2019-02-27T05:35:47.908Z,18.00
2019-02-27T05:44:10.993Z,15.67
2019-02-27T05:46:44.011Z,20.67
2019-02-27T05:49:16.324Z,18.33
2019-02-27T05:51:48.432Z,18.00
2019-02-27T05:54:20.058Z,19.33
2019-02-27T05:56:53.818Z,18.67
2019-02-27T05:59:29.407Z,14.67
2019-02-27T06:02:22.342Z,19.33
2019-02-27T06:05:16.946Z,19.33
2019-02-27T06:11:36.936Z,20.00
2019-02-27T06:14:26.889Z,18.67
2019-02-27T06:16:58.207Z,20.67
2019-02-27T06:19:33.564Z,16.00
2019-02-27T06:22:10.783Z,20.00
2019-02-27T06:24:45.581Z,16.00
2019-02-27T06:27:21.506Z,18.67
2019-02-27T06:29:56.587Z,16.67
2019-02-27T06:32:44.624Z,17.33
2019-02-27T06:35:19.451Z,20.00
2019-02-27T06:37:58.297Z,18.67
2019-02-27T06:40:32.826Z,18.00
2019-02-27T06:43:44.486Z,16.67
2019-02-27T06:46:27.302Z,16.67
2019-02-27T06:49:29.186Z,20.00
2019-02-27T06:52:14.154Z,21.33
2019-02-27T06:55:04.244Z,16.00
2019-02-27T06:57:54.642Z,16.00
2019-02-27T07:00:46.354Z,20.67
2019-02-27T07:06:21.663Z,21.00
2019-02-27T07:08:55.105Z,19.00
2019-02-27T07:11:33.603Z,18.33
2019-02-27T07:14:05.267Z,17.67
2019-02-27T07:16:37.872Z,17.67
2019-02-27T07:19:08.205Z,19.67
2019-02-27T07:22:17.861Z,14.33
2019-02-27T07:25:08.608Z,15.33
2019-02-27T07:30:59.783Z,21.67
2019-02-27T07:33:34.091Z,18.33
2019-02-27T07:38:57.537Z,18.33
2019-02-27T07:41:30.113Z,18.33
2019-02-27T07:44:57.689Z,17.00
2019-02-27T07:47:15.412Z,21.00
2019-02-27T07:50:23.447Z,17.00
2019-02-27T07:52:54.187Z,15.67
2019-02-27T07:56:02.601Z,20.67
2019-02-27T07:59:59.437Z,17.67
2019-02-27T08:02:05.570Z,21.33
2019-02-27T08:04:55.337Z,19.67
2019-02-27T08:07:48.661Z,16.67
2019-02-27T08:10:36.760Z,21.67
2019-02-27T08:13:29.588Z,20.00
2019-02-27T08:15:56.389Z,23.33
2019-02-27T08:18:46.131Z,14.67
2019-02-27T08:21:17.945Z,17.33
2019-02-27T08:23:56.394Z,22.33
2019-02-27T08:26:26.902Z,20.00
2019-02-27T08:29:37.681Z,24.00
2019-02-27T08:32:28.115Z,22.67
2019-02-27T08:38:38.227Z,18.67
2019-02-27T08:41:31.490Z,19.33
2019-02-27T08:44:07.882Z,18.67
2019-02-27T08:46:57.689Z,24.67
2019-02-27T08:52:57.814Z,28.67
2019-02-27T08:55:30.876Z,25.00
2019-02-27T08:58:26.759Z,24.33
2019-02-27T09:07:22.091Z,21.67
2019-02-27T09:10:30.904Z,23.33
2019-02-27T09:13:05.815Z,21.33
2019-02-27T09:15:59.376Z,25.33
2019-02-27T09:19:01.173Z,20.67
2019-02-27T09:27:20.094Z,23.00
2019-02-27T09:30:28.485Z,27.67
2019-02-27T09:33:04.912Z,23.00
2019-02-27T09:35:47.162Z,23.33
2019-02-27T09:38:24.399Z,22.33
2019-02-27T09:43:52.433Z,25.67
2019-02-27T09:46:49.866Z,22.00
2019-02-27T09:49:25.095Z,22.00
2019-02-27T09:52:34.126Z,24.67
2019-02-27T09:55:25.265Z,23.00
2019-02-27T10:01:24.219Z,21.67
2019-02-27T10:04:47.768Z,18.00
2019-02-27T10:07:23.091Z,23.00
2019-02-27T10:10:33.439Z,21.00
2019-02-27T10:13:04.111Z,19.67
2019-02-27T10:16:03.688Z,19.00
2019-02-27T10:18:39.930Z,20.33
2019-02-27T10:21:17.171Z,19.67
2019-02-27T10:26:53.544Z,23.00
2019-02-27T10:29:24.579Z,24.67
2019-02-27T10:32:00.716Z,26.00
2019-02-27T10:34:31.511Z,23.33
2019-02-27T10:41:02.953Z,24.67
2019-02-27T10:50:04.048Z,27.00
2019-02-27T10:52:56.484Z,24.33
2019-02-27T10:55:57.376Z,22.67
2019-02-27T10:59:09.056Z,24.67
2019-02-27T11:04:43.485Z,24.75
2019-02-27T11:13:51.409Z,27.00
2019-02-27T11:17:03.392Z,27.50
2019-02-27T11:22:47.062Z,23.00
2019-02-27T11:25:37.575Z,23.00
2019-02-27T11:28:08.933Z,24.33
2019-02-27T11:30:59.791Z,29.00
2019-02-27T11:36:29.756Z,22.67
2019-02-27T11:39:19.362Z,24.33
2019-02-27T11:42:10.584Z,29.00
2019-02-27T11:45:14.228Z,29.25
2019-02-27T11:50:43.631Z,29.75
2019-02-27T11:53:36.005Z,27.00
2019-02-27T11:59:57.791Z,26.00
2019-02-27T12:02:37.843Z,28.00
2019-02-27T12:08:48.930Z,24.00
2019-02-27T12:11:40.657Z,24.00
2019-02-27T12:14:25.692Z,22.00
2019-02-27T12:16:57.799Z,26.00
2019-02-27T12:23:07.384Z,28.50
2019-02-27T12:26:06.380Z,24.67
2019-02-27T12:28:59.516Z,24.50
2019-02-27T12:32:06.637Z,23.67
2019-02-27T12:35:13.193Z,21.00
2019-02-27T12:40:32.949Z,23.00
2019-02-27T12:46:34.803Z,20.00
2019-02-27T12:49:38.975Z,23.00
2019-02-27T12:52:48.076Z,21.00
2019-02-27T13:01:33.335Z,24.33
2019-02-27T13:04:19.925Z,23.67
2019-02-27T13:06:41.227Z,22.67
2019-02-27T13:15:26.375Z,23.00
2019-02-27T13:18:19.100Z,22.67
2019-02-27T13:21:12.288Z,23.00
2019-02-27T13:23:42.707Z,20.33
2019-02-27T13:26:34.708Z,22.67
2019-02-27T13:32:26.550Z,19.00
2019-02-27T13:34:59.105Z,19.00
2019-02-27T13:37:46.041Z,20.00
2019-02-27T13:43:58.260Z,22.00
2019-02-27T13:46:29.905Z,20.33
2019-02-27T13:49:00.397Z,22.67
2019-02-27T13:51:36.134Z,20.00
2019-02-27T13:54:06.790Z,20.00
2019-02-27T13:57:00.854Z,20.33
2019-02-27T13:59:46.526Z,20.67
2019-02-27T14:02:47.533Z,19.00
2019-02-27T14:08:57.580Z,16.00
2019-02-27T14:11:52.402Z,19.33
2019-02-27T14:14:26.336Z,16.00
2019-02-27T14:17:41.302Z,16.33
2019-02-27T14:20:11.797Z,15.33
2019-02-27T14:22:46.098Z,17.67
2019-02-27T14:25:28.474Z,17.00
2019-02-27T14:28:09.346Z,18.00
2019-02-27T14:31:00.766Z,15.33
2019-02-27T14:36:51.889Z,16.00
2019-02-27T14:40:03.762Z,20.67
2019-02-27T14:42:56.205Z,20.00
2019-02-27T14:45:47.138Z,18.00
2019-02-27T14:48:18.140Z,16.33
2019-02-27T14:50:52.640Z,13.67
2019-02-27T14:53:23.991Z,15.00
2019-02-27T14:56:00.201Z,18.33
2019-02-27T14:58:40.419Z,19.33
2019-02-27T15:01:11.831Z,18.67
2019-02-27T15:04:13.898Z,16.00
2019-02-27T15:06:51.449Z,16.33
2019-02-27T15:09:47.826Z,19.00
2019-02-27T15:12:16.184Z,22.33
2019-02-27T15:15:06.837Z,19.00
2019-02-27T15:18:16.204Z,18.00
2019-02-27T15:21:13.253Z,18.33
2019-02-27T15:23:50.755Z,15.67
2019-02-27T15:26:22.612Z,16.67
2019-02-27T15:28:57.365Z,18.00
2019-02-27T15:38:04.601Z,18.33
2019-02-27T15:40:57.074Z,16.67
2019-02-27T15:44:00.258Z,19.00
2019-02-27T15:47:01.393Z,19.33
2019-02-27T15:52:22.708Z,21.00
2019-02-27T15:58:11.397Z,18.67
2019-02-27T16:00:52.297Z,19.67
2019-02-27T16:03:38.991Z,19.33
2019-02-27T16:06:19.819Z,18.00
2019-02-27T16:09:11.940Z,18.00
2019-02-27T16:16:11.378Z,17.00
2019-02-27T16:18:44.006Z,16.33
2019-02-27T16:21:33.719Z,17.67
2019-02-27T16:24:44.148Z,17.33
2019-02-27T16:28:00.182Z,15.33
2019-02-27T16:30:32.757Z,14.33
2019-02-27T16:33:25.242Z,15.33
2019-02-27T16:36:00.457Z,12.00
2019-02-27T16:38:31.648Z,14.00
2019-02-27T16:41:27.953Z,17.00
2019-02-27T16:44:21.798Z,13.67
2019-02-27T16:47:11.851Z,13.00
2019-02-27T16:59:09.702Z,14.33
2019-02-27T17:02:00.908Z,17.33
2019-02-27T17:04:17.356Z,17.67
2019-02-27T17:06:49.135Z,17.00
2019-02-27T17:09:23.880Z,16.00
2019-02-27T17:11:56.097Z,17.00
2019-02-27T17:14:45.535Z,15.67
2019-02-27T17:17:18.862Z,13.33
2019-02-27T17:20:12.587Z,17.67
2019-02-27T17:23:15.009Z,17.33
2019-02-27T17:25:37.416Z,13.00
2019-02-27T17:28:08.264Z,16.67
2019-02-27T17:37:06.464Z,15.67
2019-02-27T17:43:01.119Z,15.67
2019-02-27T17:45:31.961Z,16.00
2019-02-27T17:53:57.964Z,14.33
2019-02-27T17:56:38.490Z,12.00
2019-02-27T17:59:31.680Z,13.00
2019-02-27T18:02:34.869Z,13.00
2019-02-27T18:05:35.486Z,11.00
2019-02-27T18:08:16.241Z,15.00
2019-02-27T18:11:15.614Z,13.00
2019-02-27T18:14:25.322Z,14.33
2019-02-27T18:17:18.124Z,15.00
2019-02-27T18:20:40.315Z,12.33
2019-02-27T18:38:37.302Z,12.00
2019-02-27T18:40:58.976Z,13.33
2019-02-27T18:43:50.235Z,10.33
2019-02-27T18:47:21.089Z,12.67
2019-02-27T18:50:32.138Z,10.00
2019-02-27T18:53:23.200Z,12.67
2019-02-27T18:55:57.820Z,12.00
2019-02-27T18:58:31.105Z,12.00
2019-02-27T19:07:07.677Z,11.33
2019-02-27T19:09:59.856Z,11.00
2019-02-27T19:16:10.137Z,9.00
2019-02-27T19:19:42.501Z,11.00
2019-02-27T19:25:44.395Z,8.00
2019-02-27T19:28:59.355Z,11.33
2019-02-27T19:31:30.046Z,12.33
2019-02-27T19:34:07.348Z,12.33
2019-02-27T19:43:05.534Z,14.00
2019-02-27T19:45:36.721Z,11.00
2019-02-27T19:54:20.665Z,11.33
2019-02-27T19:57:24.942Z,11.00
2019-02-27T20:00:14.443Z,14.33
2019-02-27T20:03:04.671Z,14.00
2019-02-27T20:05:56.155Z,13.33
2019-02-27T20:08:49.232Z,14.67
2019-02-27T20:11:58.738Z,14.00
2019-02-27T20:17:54.141Z,18.00
2019-02-27T20:20:45.362Z,19.00
2019-02-27T20:23:48.951Z,15.67
2019-02-27T20:26:44.587Z,14.00
2019-02-27T20:29:46.765Z,13.33
2019-02-27T20:32:18.353Z,15.67
2019-02-27T20:34:52.150Z,12.00
2019-02-27T20:41:00.678Z,16.00
2019-02-27T20:52:53.268Z,14.00
2019-02-27T21:01:49.814Z,14.33
2019-02-27T21:04:22.063Z,16.67
2019-02-27T21:06:56.428Z,13.00
2019-02-27T21:09:36.398Z,16.33
2019-02-27T21:17:50.661Z,19.67
2019-02-27T21:20:23.782Z,14.67
2019-02-27T21:23:13.194Z,16.33
2019-02-27T21:26:22.981Z,19.33
2019-02-27T21:29:14.922Z,17.67
2019-02-27T21:32:04.529Z,18.33
2019-02-27T21:35:14.193Z,14.67
2019-02-27T21:37:46.201Z,16.33
2019-02-27T21:40:18.819Z,13.33
2019-02-27T21:43:08.655Z,17.67
2019-02-27T21:45:39.881Z,17.33
2019-02-27T21:51:19.260Z,16.33
2019-02-27T21:54:00.313Z,16.33
2019-02-27T21:57:12.103Z,16.00
2019-02-27T21:59:55.288Z,17.33
2019-02-27T22:06:01.354Z,17.67
2019-02-27T22:08:50.892Z,17.67
2019-02-27T22:14:51.577Z,16.67
2019-02-27T22:20:36.941Z,15.67
2019-02-27T22:23:45.991Z,17.33
2019-02-27T22:30:05.558Z,19.33
2019-02-27T22:32:55.642Z,15.67
2019-02-27T22:35:45.156Z,18.33
2019-02-27T22:38:53.980Z,19.33
2019-02-27T22:41:45.044Z,18.67
2019-02-27T22:47:18.461Z,20.67
2019-02-27T22:50:10.145Z,19.67
2019-02-27T22:53:04.472Z,22.33
2019-02-27T22:55:46.774Z,16.33
2019-02-27T23:17:13.844Z,19.67
2019-02-27T23:20:20.912Z,25.00
2019-02-27T23:26:41.443Z,25.00
2019-02-27T23:29:50.413Z,24.67
2019-02-27T23:32:51.035Z,25.33
2019-02-27T23:38:34.894Z,19.33
2019-02-27T23:41:39.634Z,26.00
2019-02-27T23:44:39.358Z,18.67
2019-02-27T23:53:58.638Z,17.00
2019-02-27T23:56:36.394Z,19.67
